Time;durP1;ratioP1;P1;durP2;ratioP2;P2;SDS_P1;SDS_P2;PMS_P1;PMS_P2;Temp;Humidity;BMP_temperature;BMP_pressure;BME280_temperature;BME280_humidity;BME280_pressure;Samples;Min_cycle;Max_cycle;Signal;HPM_P1;HPM_P2
2021/07/21 00:00:56;;;;;;;9.20;5.73;;;25.80;48.40;;;;;;5105141;28;20219;-64
2021/07/21 00:03:27;;;;;;;6.10;5.50;;;25.80;48.30;;;;;;5105722;28;20193;-64
2021/07/21 00:05:57;;;;;;;7.00;6.30;;;25.80;48.30;;;;;;5098337;28;20189;-64
2021/07/21 00:08:29;;;;;;;7.27;5.50;;;25.90;48.40;;;;;;5109835;28;20213;-64
2021/07/21 00:13:47;;;;;;;6.10;5.43;;;25.80;48.40;;;;;;5108442;28;20215;-64
2021/07/21 00:16:22;;;;;;;8.03;6.00;;;25.80;48.30;;;;;;5102691;28;20196;-64
2021/07/21 00:18:57;;;;;;;7.63;6.57;;;25.80;48.40;;;;;;5105915;28;20245;-64
2021/07/21 00:21:26;;;;;;;6.47;5.70;;;25.80;48.40;;;;;;5102730;28;20242;-64
2021/07/21 00:24:07;;;;;;;6.20;5.60;;;25.80;48.40;;;;;;5110176;28;20218;-64
2021/07/21 00:26:37;;;;;;;6.50;5.90;;;25.70;48.30;;;;;;5104751;28;20200;-64
2021/07/21 00:29:08;;;;;;;6.33;5.73;;;25.70;48.30;;;;;;5101171;28;20235;-64
2021/07/21 00:31:40;;;;;;;7.00;6.27;;;25.70;48.30;;;;;;5100398;28;20185;-64
2021/07/21 00:34:10;;;;;;;6.23;5.63;;;25.70;48.30;;;;;;5101433;28;20208;-64
2021/07/21 00:36:40;;;;;;;6.80;6.10;;;25.70;48.30;;;;;;5088340;28;20223;-64
2021/07/21 00:39:10;;;;;;;7.10;6.13;;;25.70;48.30;;;;;;5104999;28;20215;-64
2021/07/21 00:41:41;;;;;;;6.80;6.20;;;25.70;48.30;;;;;;5090972;28;20649;-64
2021/07/21 00:44:10;;;;;;;6.97;6.27;;;25.70;48.30;;;;;;5104265;28;20241;-64
2021/07/21 00:46:40;;;;;;;6.80;5.97;;;25.70;48.30;;;;;;5105291;28;20206;-64
2021/07/21 00:49:12;;;;;;;6.93;6.27;;;25.70;48.30;;;;;;5104912;28;20336;-64
2021/07/21 00:51:55;;;;;;;7.43;6.20;;;25.70;48.30;;;;;;5108728;28;20280;-64
2021/07/21 00:54:37;;;;;;;6.87;5.73;;;25.70;48.30;;;;;;5101049;28;20275;-64
2021/07/21 00:57:10;;;;;;;6.47;5.83;;;25.70;49.00;;;;;;5090474;28;20860;-64
2021/07/21 00:59:41;;;;;;;6.13;5.53;;;25.60;48.30;;;;;;5100907;28;20228;-64
2021/07/21 01:02:12;;;;;;;6.17;5.20;;;25.70;48.30;;;;;;5108245;27;20746;-64
2021/07/21 01:04:42;;;;;;;7.27;5.87;;;25.60;48.30;;;;;;5103523;28;20610;-64
2021/07/21 01:07:14;;;;;;;6.37;5.80;;;25.60;48.30;;;;;;5108265;28;20204;-64
2021/07/21 01:09:45;;;;;;;6.50;5.90;;;25.60;48.30;;;;;;5102498;28;20240;-64
2021/07/21 01:12:47;;;;;;;6.47;5.70;;;25.60;48.30;;;;;;5091004;28;20208;-64
2021/07/21 01:15:34;;;;;;;6.87;6.00;;;25.60;48.20;;;;;;5077092;28;20212;-63
2021/07/21 01:18:40;;;;;;;7.83;5.80;;;25.60;48.30;;;;;;5103698;28;20201;-64
2021/07/21 01:21:44;;;;;;;6.30;5.53;;;25.50;48.10;;;;;;5093904;28;20619;-64
2021/07/21 01:24:28;;;;;;;8.20;6.03;;;25.60;48.20;;;;;;5103654;28;20208;-63
2021/07/21 01:27:26;;;;;;;7.47;6.20;;;25.50;48.20;;;;;;5107146;28;20261;-64
2021/07/21 01:30:12;;;;;;;6.13;5.53;;;25.60;48.30;;;;;;5104313;28;20207;-64
2021/07/21 01:32:53;;;;;;;6.53;5.93;;;25.50;48.20;;;;;;5101050;28;20192;-64
2021/07/21 01:35:47;;;;;;;6.00;5.50;;;25.50;48.20;;;;;;5109476;28;20188;-64
2021/07/21 01:38:29;;;;;;;7.90;5.50;;;25.50;48.20;;;;;;5100874;28;20215;-64
2021/07/21 01:41:18;;;;;;;6.10;5.50;;;25.50;48.30;;;;;;5103813;28;20302;-64
2021/07/21 01:43:57;;;;;;;7.13;5.73;;;25.50;48.30;;;;;;5103537;28;20683;-64
2021/07/21 01:46:33;;;;;;;6.03;5.33;;;25.50;48.90;;;;;;5098261;28;20648;-64
2021/07/21 01:49:07;;;;;;;7.77;5.47;;;25.50;48.30;;;;;;5104093;28;20227;-64
2021/07/21 01:51:36;;;;;;;7.77;6.20;;;25.50;48.30;;;;;;5108225;28;20661;-64
2021/07/21 01:54:09;;;;;;;6.73;6.13;;;25.50;48.40;;;;;;5103590;28;20200;-64
2021/07/21 01:56:38;;;;;;;6.17;5.57;;;25.50;48.40;;;;;;5103180;28;20587;-64
2021/07/21 01:59:08;;;;;;;7.20;5.57;;;25.50;48.30;;;;;;5102157;28;20196;-64
2021/07/21 02:01:40;;;;;;;6.10;5.60;;;25.50;48.30;;;;;;5100826;28;20237;-64
2021/07/21 02:04:12;;;;;;;7.20;6.10;;;25.50;48.30;;;;;;5105477;28;20184;-64
2021/07/21 02:06:47;;;;;;;6.43;5.83;;;25.40;48.20;;;;;;5098454;28;20649;-65
2021/07/21 02:09:20;;;;;;;6.20;5.60;;;25.40;48.20;;;;;;5096283;28;20213;-65
2021/07/21 02:11:49;;;;;;;6.13;5.60;;;25.40;48.20;;;;;;5101050;28;20223;-65
2021/07/21 02:14:18;;;;;;;6.77;6.10;;;25.40;48.20;;;;;;5106689;28;20200;-64
2021/07/21 02:16:48;;;;;;;7.50;5.53;;;25.40;48.20;;;;;;5100819;28;20682;-65
2021/07/21 02:19:21;;;;;;;6.73;5.90;;;25.40;48.20;;;;;;5108571;28;20621;-64
2021/07/21 02:21:50;;;;;;;7.40;6.17;;;25.40;48.10;;;;;;5100166;28;20224;-64
2021/07/21 02:24:18;;;;;;;6.70;6.00;;;25.40;48.20;;;;;;5103758;28;20907;-65
2021/07/21 02:26:50;;;;;;;10.57;5.63;;;25.40;48.20;;;;;;5101650;28;20208;-64
2021/07/21 02:29:22;;;;;;;5.67;5.07;;;25.40;48.20;;;;;;5107960;28;20676;-65
2021/07/21 02:32:25;;;;;;;6.47;5.73;;;25.40;48.10;;;;;;5097319;28;20195;-64
2021/07/21 02:35:03;;;;;;;6.73;6.03;;;25.40;48.10;;;;;;5100358;28;20692;-64
2021/07/21 02:37:33;;;;;;;7.37;5.90;;;25.30;48.10;;;;;;5106417;28;20200;-64
2021/07/21 02:40:06;;;;;;;6.87;5.83;;;25.30;48.10;;;;;;5103154;28;20201;-64
2021/07/21 02:42:39;;;;;;;5.97;5.20;;;25.40;48.10;;;;;;5108640;28;20200;-64
2021/07/21 02:45:08;;;;;;;7.27;5.87;;;25.40;48.20;;;;;;5099811;28;20239;-64
2021/07/21 02:47:38;;;;;;;6.63;5.80;;;25.30;48.10;;;;;;5101556;28;20209;-64
2021/07/21 02:50:07;;;;;;;6.10;5.50;;;25.30;48.10;;;;;;5102652;28;20556;-63
2021/07/21 02:52:53;;;;;;;6.70;5.83;;;25.30;48.70;;;;;;5104056;28;20196;-63
2021/07/21 02:55:44;;;;;;;7.07;5.77;;;25.30;48.10;;;;;;5098589;28;20277;-64
2021/07/21 02:58:32;;;;;;;6.47;5.80;;;25.30;48.70;;;;;;5101349;28;20205;-64
2021/07/21 03:01:03;;;;;;;6.17;5.57;;;25.30;48.10;;;;;;5102741;28;20192;-64
2021/07/21 03:03:57;;;;;;;6.47;5.70;;;25.20;48.10;;;;;;5099662;28;20200;-65
2021/07/21 03:06:41;;;;;;;6.10;5.50;;;25.20;48.20;;;;;;5100923;28;20268;-65
2021/07/21 03:09:13;;;;;;;5.67;5.20;;;25.20;48.10;;;;;;5101956;28;20281;-64
2021/07/21 03:11:50;;;;;;;5.57;5.07;;;25.20;48.10;;;;;;5101550;28;20204;-65
2021/07/21 03:14:21;;;;;;;8.80;5.40;;;25.20;48.20;;;;;;5101838;28;20877;-65
2021/07/21 03:16:52;;;;;;;5.33;4.83;;;25.20;48.10;;;;;;5103713;28;20189;-65
2021/07/21 03:19:26;;;;;;;5.77;5.10;;;25.20;48.20;;;;;;5107245;28;20217;-65
2021/07/21 03:21:57;;;;;;;6.47;5.87;;;25.20;48.20;;;;;;5099427;28;20271;-65
2021/07/21 03:24:35;;;;;;;6.23;5.27;;;25.20;48.20;;;;;;5101648;28;20216;-65
2021/07/21 03:27:06;;;;;;;5.40;4.90;;;25.20;48.20;;;;;;5109004;28;20978;-65
2021/07/21 03:29:42;;;;;;;6.13;5.53;;;25.30;48.10;;;;;;5105787;28;20228;-66
2021/07/21 03:32:17;;;;;;;6.80;5.67;;;25.30;48.10;;;;;;5091829;28;20199;-65
2021/07/21 03:34:54;;;;;;;5.63;5.13;;;25.30;48.00;;;;;;5098734;28;20701;-66
2021/07/21 03:37:27;;;;;;;6.50;5.57;;;25.30;47.90;;;;;;5100788;28;20622;-65
2021/07/21 03:39:58;;;;;;;5.47;4.97;;;25.30;47.70;;;;;;5104308;28;20208;-65
2021/07/21 03:42:28;;;;;;;6.10;5.40;;;25.40;47.80;;;;;;5106692;28;20298;-65
2021/07/21 03:45:03;;;;;;;8.43;5.40;;;25.30;47.70;;;;;;5102367;28;20626;-63
2021/07/21 03:47:35;;;;;;;9.53;6.00;;;25.40;47.60;;;;;;5105220;28;20222;-64
2021/07/21 03:50:05;;;;;;;6.70;5.70;;;25.40;47.50;;;;;;5105968;28;20280;-64
2021/07/21 03:52:41;;;;;;;6.27;5.67;;;25.40;47.50;;;;;;5105405;27;20189;-64
2021/07/21 03:55:16;;;;;;;5.87;5.30;;;25.40;47.40;;;;;;5108769;28;20196;-65
2021/07/21 03:57:47;;;;;;;6.17;5.17;;;25.40;47.30;;;;;;5101168;28;20234;-65
2021/07/21 04:00:24;;;;;;;6.00;5.40;;;25.40;47.30;;;;;;5110936;28;20200;-65
2021/07/21 04:03:11;;;;;;;5.77;5.27;;;25.40;47.20;;;;;;5102139;28;20208;-65
2021/07/21 04:05:44;;;;;;;6.43;5.77;;;25.40;47.20;;;;;;5100287;27;20619;-65
2021/07/21 04:08:35;;;;;;;5.90;5.40;;;25.40;47.10;;;;;;5100443;28;20196;-66
2021/07/21 04:11:12;;;;;;;6.50;5.70;;;25.40;47.00;;;;;;5106691;28;20756;-64
2021/07/21 04:13:52;;;;;;;6.70;6.00;;;25.50;47.00;;;;;;5104913;28;20199;-66
2021/07/21 04:16:27;;;;;;;6.40;5.80;;;25.40;46.90;;;;;;5103775;28;20208;-66
2021/07/21 04:19:22;;;;;;;6.23;5.60;;;25.40;46.90;;;;;;5091841;28;20197;-66
2021/07/21 04:22:04;;;;;;;6.70;6.07;;;25.40;46.80;;;;;;5100356;28;20229;-65
2021/07/21 04:24:35;;;;;;;6.23;5.70;;;25.50;46.80;;;;;;5110275;28;20195;-66
2021/07/21 04:27:11;;;;;;;6.37;5.80;;;25.40;46.70;;;;;;5106022;28;20211;-64
2021/07/21 04:29:41;;;;;;;9.80;6.53;;;25.40;46.60;;;;;;5092639;28;20223;-64
2021/07/21 04:32:16;;;;;;;8.50;6.70;;;25.40;46.70;;;;;;5093932;28;20777;-64
2021/07/21 04:34:47;;;;;;;6.83;5.77;;;25.40;46.60;;;;;;5106642;28;20204;-64
2021/07/21 04:37:22;;;;;;;7.07;6.37;;;25.40;46.60;;;;;;5101660;28;20269;-64
2021/07/21 04:39:55;;;;;;;6.73;5.70;;;25.30;46.60;;;;;;5103290;28;20219;-65
2021/07/21 04:42:31;;;;;;;6.83;6.23;;;25.30;46.90;;;;;;5107882;28;20196;-66
2021/07/21 04:45:04;;;;;;;6.57;5.80;;;25.30;47.00;;;;;;5099831;28;20211;-66
2021/07/21 04:47:41;;;;;;;7.27;5.80;;;25.30;47.10;;;;;;5106619;28;20211;-65
2021/07/21 04:50:16;;;;;;;6.17;5.50;;;25.30;47.10;;;;;;5105744;28;20767;-66
2021/07/21 04:52:58;;;;;;;6.93;6.23;;;25.30;47.20;;;;;;5105526;28;20288;-66
2021/07/21 04:55:28;;;;;;;6.30;5.70;;;25.30;47.20;;;;;;5107051;28;20200;-67
2021/07/21 04:57:58;;;;;;;7.57;5.93;;;25.30;47.20;;;;;;5100074;28;20648;-67
2021/07/21 05:00:31;;;;;;;7.07;6.37;;;25.30;47.30;;;;;;5102820;28;20519;-65
2021/07/21 05:03:24;;;;;;;7.37;6.63;;;25.20;47.30;;;;;;5098299;28;20189;-65
2021/07/21 05:05:55;;;;;;;10.83;6.53;;;25.30;47.30;;;;;;5097763;28;20237;-65
2021/07/21 05:08:27;;;;;;;8.27;6.67;;;25.20;47.30;;;;;;5107849;28;20315;-64
2021/07/21 05:10:59;;;;;;;7.93;6.40;;;25.20;47.40;;;;;;5101162;28;20244;-65
2021/07/21 05:13:28;;;;;;;8.73;7.33;;;25.20;47.50;;;;;;5108562;28;20536;-64
2021/07/21 05:16:03;;;;;;;9.77;6.80;;;25.20;47.60;;;;;;5090047;28;20246;-64
2021/07/21 05:18:33;;;;;;;9.90;6.80;;;25.20;47.70;;;;;;5108870;28;20192;-64
2021/07/21 05:21:04;;;;;;;18.30;9.77;;;25.20;47.80;;;;;;5098172;28;20337;-63
2021/07/21 05:23:33;;;;;;;40.67;16.60;;;25.20;49.10;;;;;;5107023;28;20324;-63
2021/07/21 05:26:05;;;;;;;35.60;16.13;;;25.20;50.60;;;;;;5104466;28;20207;-63
2021/07/21 05:28:39;;;;;;;27.73;13.73;;;25.20;51.60;;;;;;5101894;28;20211;-63
2021/07/21 05:31:07;;;;;;;20.60;11.97;;;25.10;51.10;;;;;;5095520;28;20350;-63
2021/07/21 05:33:37;;;;;;;16.67;11.13;;;25.10;50.80;;;;;;5098843;28;20243;-64
2021/07/21 05:36:05;;;;;;;16.93;10.87;;;25.10;50.60;;;;;;5101050;28;20217;-64
2021/07/21 05:38:39;;;;;;;16.43;10.17;;;25.00;50.50;;;;;;5101872;28;20284;-64
2021/07/21 05:41:10;;;;;;;12.20;9.03;;;25.10;50.50;;;;;;5104622;28;20197;-63
2021/07/21 05:43:40;;;;;;;11.17;8.63;;;25.10;50.50;;;;;;5099306;28;20243;-63
2021/07/21 05:46:12;;;;;;;9.83;7.93;;;25.00;50.30;;;;;;5100855;28;20197;-63
2021/07/21 05:48:43;;;;;;;10.77;8.80;;;25.00;50.40;;;;;;5088363;28;20212;-63
2021/07/21 05:51:13;;;;;;;12.40;8.83;;;25.00;50.30;;;;;;5104944;28;20200;-63
2021/07/21 05:53:43;;;;;;;11.40;10.17;;;25.00;50.10;;;;;;5098812;28;20707;-63
2021/07/21 05:56:16;;;;;;;13.10;9.60;;;25.00;50.10;;;;;;5099869;28;20265;-63
2021/07/21 05:58:47;;;;;;;13.47;9.93;;;24.90;50.00;;;;;;5102391;28;20196;-63
2021/07/21 06:01:18;;;;;;;13.07;10.83;;;24.90;50.00;;;;;;5102536;28;20201;-63
2021/07/21 06:03:47;;;;;;;14.73;10.73;;;24.90;50.00;;;;;;5098106;28;20232;-63
2021/07/21 06:06:17;;;;;;;13.13;10.77;;;24.90;50.10;;;;;;5103832;28;20196;-63
2021/07/21 06:09:00;;;;;;;18.27;12.33;;;24.90;50.20;;;;;;5100729;28;20233;-64
2021/07/21 06:11:32;;;;;;;15.83;11.73;;;24.80;50.20;;;;;;5104461;28;20200;-64
2021/07/21 06:14:07;;;;;;;13.43;11.83;;;24.80;50.20;;;;;;5104412;28;20221;-64
2021/07/21 06:16:40;;;;;;;16.40;12.53;;;24.80;50.20;;;;;;5103100;28;20201;-63
2021/07/21 06:19:09;;;;;;;14.23;11.83;;;24.80;50.30;;;;;;5101072;28;20192;-64
2021/07/21 06:21:39;;;;;;;14.53;12.43;;;24.80;50.40;;;;;;5107681;28;20239;-64
2021/07/21 06:24:10;;;;;;;15.17;13.47;;;24.70;50.30;;;;;;5099409;28;20192;-64
2021/07/21 06:26:41;;;;;;;17.17;13.70;;;24.80;50.40;;;;;;5103149;28;20200;-64
2021/07/21 06:29:13;;;;;;;16.53;13.87;;;24.70;50.40;;;;;;5094194;28;20747;-64
2021/07/21 06:31:43;;;;;;;15.93;13.70;;;24.70;50.50;;;;;;5101853;28;20234;-63
2021/07/21 06:34:16;;;;;;;16.23;13.57;;;24.70;50.60;;;;;;5103525;28;20196;-64
2021/07/21 06:36:48;;;;;;;17.40;14.20;;;24.80;50.70;;;;;;5096144;28;20195;-64
2021/07/21 06:39:20;;;;;;;16.37;13.47;;;24.70;50.80;;;;;;5104038;28;20188;-64
2021/07/21 06:41:51;;;;;;;14.37;12.83;;;24.70;50.80;;;;;;5102204;28;20199;-63
2021/07/21 06:44:22;;;;;;;15.00;13.40;;;24.70;51.00;;;;;;5103083;28;20201;-64
2021/07/21 06:46:52;;;;;;;15.57;12.77;;;24.70;51.10;;;;;;5100140;28;20211;-64
2021/07/21 06:49:22;;;;;;;13.73;11.70;;;24.70;51.20;;;;;;5109054;28;20253;-64
2021/07/21 06:51:56;;;;;;;14.40;11.17;;;24.70;51.20;;;;;;5103841;28;20200;-66
2021/07/21 06:54:27;;;;;;;11.30;9.90;;;24.70;51.50;;;;;;5111736;28;20203;-66
2021/07/21 06:56:57;;;;;;;11.00;9.87;;;24.70;51.50;;;;;;5105051;28;20207;-64
2021/07/21 06:59:29;;;;;;;13.40;10.80;;;24.70;51.20;;;;;;5106900;28;20201;-63
2021/07/21 07:02:00;;;;;;;11.13;9.73;;;24.80;51.10;;;;;;5103967;28;20193;-65
2021/07/21 07:04:29;;;;;;;12.80;10.30;;;24.80;51.00;;;;;;5104881;28;20728;-65
2021/07/21 07:06:58;;;;;;;12.03;9.90;;;24.80;50.80;;;;;;5090456;28;20209;-65
2021/07/21 07:09:26;;;;;;;11.30;10.10;;;24.90;50.70;;;;;;5103679;28;20222;-65
2021/07/21 07:12:01;;;;;;;11.10;9.00;;;24.80;50.50;;;;;;5102603;28;20189;-64
2021/07/21 07:14:32;;;;;;;13.87;9.07;;;24.90;50.40;;;;;;5103755;28;20207;-64
2021/07/21 07:17:02;;;;;;;9.17;8.20;;;24.90;50.30;;;;;;5103989;28;20614;-64
2021/07/21 07:19:31;;;;;;;11.50;8.57;;;24.90;50.10;;;;;;5106953;28;20249;-64
2021/07/21 07:22:03;;;;;;;12.03;7.77;;;25.00;49.90;;;;;;5106188;28;20248;-64
2021/07/21 07:24:47;;;;;;;8.87;7.20;;;25.00;49.80;;;;;;5107254;28;20208;-64
2021/07/21 07:27:17;;;;;;;9.23;7.27;;;25.00;49.80;;;;;;5103153;28;20211;-65
2021/07/21 07:29:46;;;;;;;8.13;6.80;;;25.00;49.60;;;;;;5104613;28;20213;-65
2021/07/21 07:32:15;;;;;;;7.13;6.43;;;25.00;49.50;;;;;;5106613;28;20207;-64
2021/07/21 07:34:44;;;;;;;8.03;6.40;;;25.00;49.50;;;;;;5107906;28;20219;-64
2021/07/21 07:37:14;;;;;;;7.50;5.80;;;25.00;49.50;;;;;;5101113;28;20195;-64
2021/07/21 07:39:47;;;;;;;6.43;5.83;;;25.00;49.40;;;;;;5108970;28;20200;-65
2021/07/21 07:42:18;;;;;;;7.27;5.77;;;25.10;49.50;;;;;;5103103;28;20208;-63
2021/07/21 07:44:47;;;;;;;7.33;5.93;;;25.10;49.50;;;;;;5104454;28;20252;-62
2021/07/21 07:47:24;;;;;;;10.80;5.77;;;25.10;49.40;;;;;;5104903;28;20188;-64
2021/07/21 07:49:52;;;;;;;7.33;5.50;;;25.10;49.60;;;;;;5104454;28;20220;-66
2021/07/21 07:52:57;;;;;;;5.83;5.23;;;25.20;49.30;;;;;;5105556;28;20282;-64
2021/07/21 07:55:25;;;;;;;6.17;5.17;;;25.20;50.60;;;;;;5096310;28;20189;-64
2021/07/21 07:57:54;;;;;;;7.20;5.17;;;25.20;49.90;;;;;;5100696;28;20208;-64
2021/07/21 08:00:25;;;;;;;7.83;5.10;;;25.20;49.60;;;;;;5095205;28;20219;-65
2021/07/21 08:02:55;;;;;;;6.53;5.23;;;25.30;49.30;;;;;;5101915;28;20228;-65
2021/07/21 08:05:32;;;;;;;5.07;4.63;;;25.30;49.60;;;;;;5102611;28;20189;-64
2021/07/21 08:08:04;;;;;;;5.53;4.90;;;25.30;48.90;;;;;;5102615;28;20217;-62
2021/07/21 08:10:33;;;;;;;5.60;4.87;;;25.30;48.90;;;;;;5107692;28;20225;-63
2021/07/21 08:13:03;;;;;;;7.00;5.30;;;25.30;48.60;;;;;;5105378;28;20639;-64
2021/07/21 08:15:32;;;;;;;6.43;4.63;;;25.40;48.60;;;;;;5103848;28;20202;-68
2021/07/21 08:18:03;;;;;;;5.43;4.70;;;25.40;48.40;;;;;;5103861;28;20538;-66
2021/07/21 08:20:34;;;;;;;5.70;5.10;;;25.40;48.30;;;;;;5100196;28;20208;-66
2021/07/21 08:23:06;;;;;;;5.07;4.57;;;25.40;48.20;;;;;;5105646;28;20231;-66
2021/07/21 08:25:38;;;;;;;6.10;4.60;;;25.40;48.40;;;;;;5095163;28;20197;-66
2021/07/21 08:28:07;;;;;;;5.97;4.93;;;25.40;48.50;;;;;;5100132;28;20196;-67
2021/07/21 08:30:37;;;;;;;5.10;4.43;;;25.50;48.40;;;;;;5097638;28;20624;-63
2021/07/21 08:33:05;;;;;;;5.30;4.80;;;25.50;48.40;;;;;;5103558;28;20704;-64
2021/07/21 08:35:37;;;;;;;5.73;4.50;;;25.50;48.20;;;;;;5103284;28;20196;-65
2021/07/21 08:38:06;;;;;;;6.57;4.63;;;25.50;48.20;;;;;;5102190;28;20202;-65
2021/07/21 08:40:37;;;;;;;5.37;4.80;;;25.50;48.20;;;;;;5107719;28;20196;-66
2021/07/21 08:43:27;;;;;;;8.60;5.37;;;25.50;48.80;;;;;;5101898;28;20212;-65
2021/07/21 08:45:58;;;;;;;11.47;5.20;;;25.50;50.80;;;;;;5104470;28;20219;-65
2021/07/21 08:48:30;;;;;;;7.97;5.17;;;25.60;50.90;;;;;;5103651;28;20196;-64
2021/07/21 08:50:59;;;;;;;5.50;5.00;;;25.60;49.60;;;;;;5101546;28;20242;-65
2021/07/21 08:53:34;;;;;;;6.60;5.20;;;25.60;49.40;;;;;;5086747;28;20193;-65
2021/07/21 08:56:07;;;;;;;5.13;4.63;;;25.60;48.90;;;;;;5107894;27;20243;-64
2021/07/21 08:58:38;;;;;;;6.87;4.80;;;25.50;48.30;;;;;;5096647;28;20201;-65
2021/07/21 09:01:18;;;;;;;5.87;4.80;;;25.50;48.40;;;;;;5097769;28;20799;-64
2021/07/21 09:03:48;;;;;;;6.37;4.83;;;25.50;48.40;;;;;;5101396;28;20227;-64
2021/07/21 09:06:17;;;;;;;6.73;4.97;;;25.50;48.60;;;;;;5090195;28;20204;-64
2021/07/21 09:08:47;;;;;;;5.87;5.00;;;25.50;48.60;;;;;;5108274;28;20196;-65
2021/07/21 09:11:20;;;;;;;6.17;4.60;;;25.50;48.60;;;;;;5101026;28;20221;-65
2021/07/21 09:13:50;;;;;;;5.50;4.43;;;25.50;48.50;;;;;;5106727;28;20549;-65
2021/07/21 09:16:20;;;;;;;6.00;4.90;;;25.50;48.40;;;;;;5103233;28;20528;-65
2021/07/21 09:18:52;;;;;;;5.17;4.67;;;25.50;48.50;;;;;;5105990;28;21616;-66
2021/07/21 09:21:22;;;;;;;4.77;4.37;;;25.60;48.60;;;;;;5097145;28;21139;-66
2021/07/21 09:23:57;;;;;;;5.27;4.73;;;25.60;48.20;;;;;;5093281;28;20237;-65
2021/07/21 09:26:36;;;;;;;6.07;4.80;;;25.60;47.50;;;;;;5103420;28;20629;-66
2021/07/21 09:29:14;;;;;;;9.47;4.80;;;25.60;47.30;;;;;;5098664;28;20207;-66
2021/07/21 09:31:54;;;;;;;6.03;4.57;;;25.70;47.60;;;;;;5065030;28;20228;-64
2021/07/21 09:34:25;;;;;;;7.83;4.27;;;25.70;47.70;;;;;;5096241;28;20204;-64
2021/07/21 09:37:04;;;;;;;6.43;4.87;;;25.70;47.60;;;;;;5101196;28;20626;-64
2021/07/21 09:39:43;;;;;;;4.83;4.30;;;25.70;47.50;;;;;;5107707;28;20228;-64
2021/07/21 09:42:13;;;;;;;5.30;4.80;;;25.70;46.90;;;;;;5093876;28;20200;-64
2021/07/21 09:44:48;;;;;;;5.17;4.17;;;25.70;46.80;;;;;;5101770;28;20204;-63
2021/07/21 09:47:22;;;;;;;6.17;4.77;;;25.70;46.90;;;;;;5098227;28;20203;-65
2021/07/21 09:50:35;;;;;;;5.97;4.60;;;25.80;47.20;;;;;;5099783;27;20200;-65
2021/07/21 09:53:09;;;;;;;5.90;5.10;;;25.80;47.50;;;;;;5097543;28;20209;-64
2021/07/21 09:55:41;;;;;;;6.20;5.20;;;25.80;46.20;;;;;;5100077;28;20205;-66
2021/07/21 09:58:19;;;;;;;5.03;4.50;;;25.80;46.40;;;;;;5099947;28;20211;-67
2021/07/21 10:00:55;;;;;;;7.40;4.47;;;25.90;46.80;;;;;;5094870;28;20868;-68
2021/07/21 10:03:29;;;;;;;7.40;4.50;;;25.90;46.70;;;;;;5097708;28;20196;-67
2021/07/21 10:06:12;;;;;;;7.20;4.50;;;25.90;46.70;;;;;;5098676;28;20196;-65
2021/07/21 10:08:48;;;;;;;6.90;5.30;;;25.90;46.50;;;;;;5104737;28;20518;-67
2021/07/21 10:11:26;;;;;;;5.83;4.57;;;25.90;46.30;;;;;;5097072;28;20226;-66
2021/07/21 10:14:01;;;;;;;5.07;4.57;;;25.90;46.10;;;;;;5101597;28;20635;-66
2021/07/21 10:16:53;;;;;;;5.40;4.90;;;25.90;46.10;;;;;;5101595;28;20249;-68
2021/07/21 10:19:27;;;;;;;7.23;5.30;;;26.00;46.40;;;;;;5123036;27;20211;-67
2021/07/21 10:22:00;;;;;;;6.47;5.77;;;26.00;46.30;;;;;;5107191;28;20942;-69
2021/07/21 10:24:34;;;;;;;6.53;5.83;;;26.00;46.10;;;;;;5102446;28;20260;-69
2021/07/21 10:27:05;;;;;;;5.13;4.60;;;26.00;45.90;;;;;;5108627;28;20211;-67
2021/07/21 10:29:35;;;;;;;6.30;4.80;;;26.10;46.10;;;;;;5096680;28;20203;-68
2021/07/21 10:32:07;;;;;;;8.03;5.00;;;26.10;46.40;;;;;;5105970;28;20212;-66
2021/07/21 10:34:42;;;;;;;5.50;5.00;;;26.10;46.50;;;;;;5101719;28;20201;-64
2021/07/21 10:37:13;;;;;;;5.07;4.50;;;26.10;46.70;;;;;;5099646;28;20192;-65
2021/07/21 10:40:08;;;;;;;5.90;5.30;;;26.10;46.90;;;;;;5083743;28;20192;-65
2021/07/21 10:42:42;;;;;;;5.57;4.73;;;26.20;46.30;;;;;;5106176;28;20673;-65
2021/07/21 10:45:22;;;;;;;5.97;5.10;;;26.20;46.30;;;;;;5101074;28;20614;-65
2021/07/21 10:47:59;;;;;;;5.23;4.73;;;26.20;46.30;;;;;;5105149;28;20277;-65
2021/07/21 10:59:21;;;;;;;5.57;4.97;;;26.10;46.50;;;;;;5100454;28;20192;-65
2021/07/21 11:02:01;;;;;;;5.90;5.30;;;26.10;46.50;;;;;;5101241;28;20188;-65
2021/07/21 11:05:03;;;;;;;5.57;5.07;;;26.10;47.00;;;;;;5098674;28;20192;-65
2021/07/21 11:07:54;;;;;;;7.60;5.40;;;26.10;45.70;;;;;;5101332;28;20205;-65
2021/07/21 11:10:44;;;;;;;5.67;5.03;;;26.10;46.00;;;;;;5098979;28;20805;-65
2021/07/21 11:13:39;;;;;;;6.03;5.43;;;26.10;45.70;;;;;;5088802;28;20430;-69
2021/07/21 11:16:45;;;;;;;6.57;5.00;;;26.20;46.50;;;;;;5100113;28;20216;-64
2021/07/21 11:19:32;;;;;;;6.63;4.83;;;26.20;46.70;;;;;;5101033;28;20192;-64
2021/07/21 11:22:18;;;;;;;5.67;5.10;;;26.20;47.00;;;;;;5096614;28;20240;-65
2021/07/21 11:25:02;;;;;;;5.83;5.20;;;26.20;47.30;;;;;;5099653;28;20201;-67
2021/07/21 11:28:03;;;;;;;7.17;4.87;;;26.30;47.80;;;;;;5100390;28;20196;-68
2021/07/21 11:31:02;;;;;;;6.23;5.50;;;26.30;47.50;;;;;;5098549;28;20209;-68
2021/07/21 11:33:55;;;;;;;15.17;6.10;;;26.30;47.40;;;;;;5101459;28;20193;-69
2021/07/21 11:36:54;;;;;;;9.73;5.60;;;26.30;47.70;;;;;;5104964;28;20223;-69
2021/07/21 11:39:54;;;;;;;6.80;6.07;;;26.30;47.30;;;;;;5110160;28;20226;-68
2021/07/21 11:42:34;;;;;;;7.40;5.90;;;26.30;47.10;;;;;;5103391;28;20744;-67
2021/07/21 11:45:15;;;;;;;7.80;6.60;;;26.30;46.30;;;;;;5109161;28;20191;-67
2021/07/21 11:47:52;;;;;;;7.00;6.27;;;26.30;46.80;;;;;;5106771;28;20200;-67
2021/07/21 11:50:28;;;;;;;6.90;6.20;;;26.30;46.20;;;;;;5107097;28;20196;-67
2021/07/21 11:53:12;;;;;;;9.43;6.77;;;26.30;46.40;;;;;;5103428;28;20245;-67
2021/07/21 11:55:44;;;;;;;7.13;6.03;;;26.30;46.70;;;;;;5104313;28;20517;-67
2021/07/21 11:58:15;;;;;;;5.93;5.33;;;26.30;46.60;;;;;;5103278;28;20257;-67
2021/07/21 12:00:50;;;;;;;5.80;5.30;;;26.30;47.70;;;;;;5089468;28;20202;-67
2021/07/21 12:03:21;;;;;;;7.60;6.20;;;26.40;47.20;;;;;;5102657;28;20191;-67
2021/07/21 12:06:00;;;;;;;8.20;6.57;;;26.40;47.20;;;;;;5107756;28;20200;-68
2021/07/21 12:08:32;;;;;;;11.93;6.63;;;26.40;46.90;;;;;;5104932;28;20677;-67
2021/07/21 12:11:14;;;;;;;7.33;6.30;;;26.30;46.40;;;;;;5107950;28;20264;-67
2021/07/21 12:13:56;;;;;;;7.43;6.63;;;26.40;46.20;;;;;;5107232;28;20625;-66
2021/07/21 12:16:28;;;;;;;7.77;7.07;;;26.30;46.40;;;;;;5101769;28;20673;-67
2021/07/21 12:19:03;;;;;;;7.53;6.73;;;26.40;46.50;;;;;;5092239;28;20219;-65
2021/07/21 12:21:34;;;;;;;6.90;6.20;;;26.40;46.90;;;;;;5105078;28;20200;-66
2021/07/21 12:24:06;;;;;;;7.47;6.77;;;26.40;47.70;;;;;;5068851;28;20202;-66
2021/07/21 12:26:39;;;;;;;7.00;6.40;;;26.40;48.10;;;;;;5060786;28;20241;-67
2021/07/21 12:29:07;;;;;;;6.40;5.80;;;26.50;48.10;;;;;;5058235;28;20215;-67
2021/07/21 12:31:36;;;;;;;7.40;6.70;;;26.50;48.60;;;;;;5063497;28;20229;-66
2021/07/21 12:34:18;;;;;;;6.47;5.73;;;26.50;48.10;;;;;;5064537;28;20200;-65
2021/07/21 12:36:52;;;;;;;7.73;7.03;;;26.60;48.50;;;;;;5067178;28;20201;-66
2021/07/21 12:39:27;;;;;;;7.50;6.80;;;26.60;48.00;;;;;;5068695;28;20491;-66
2021/07/21 12:42:12;;;;;;;7.33;6.63;;;26.80;47.90;;;;;;5065747;28;20229;-65
2021/07/21 12:45:10;;;;;;;7.33;6.67;;;26.90;48.20;;;;;;5066367;28;20560;-65
2021/07/21 12:47:43;;;;;;;7.93;6.80;;;27.00;48.30;;;;;;5064699;28;20209;-65
2021/07/21 12:50:15;;;;;;;7.33;6.57;;;27.10;48.90;;;;;;5067226;28;20197;-66
2021/07/21 12:52:53;;;;;;;7.03;6.33;;;27.20;48.60;;;;;;5066635;28;20279;-65
2021/07/21 12:55:41;;;;;;;9.47;6.20;;;27.30;48.30;;;;;;5061844;28;20193;-64
2021/07/21 12:58:14;;;;;;;7.23;6.57;;;27.30;48.90;;;;;;5059168;28;20201;-64
2021/07/21 13:00:45;;;;;;;7.63;6.83;;;27.40;48.50;;;;;;5062071;28;20205;-68
2021/07/21 13:03:21;;;;;;;7.57;6.77;;;27.40;48.10;;;;;;5062381;28;20567;-68
2021/07/21 13:06:00;;;;;;;6.53;5.93;;;27.50;48.10;;;;;;5060254;28;20734;-68
2021/07/21 13:08:34;;;;;;;7.30;6.20;;;27.50;48.10;;;;;;5060721;28;20200;-68
2021/07/21 13:11:15;;;;;;;6.67;6.07;;;27.50;48.10;;;;;;5046012;28;20206;-68
2021/07/21 13:14:03;;;;;;;6.73;6.13;;;27.60;48.20;;;;;;5064867;28;20587;-68
2021/07/21 13:16:45;;;;;;;6.43;5.77;;;27.60;48.40;;;;;;5057281;28;20682;-68
2021/07/21 13:19:14;;;;;;;6.30;5.70;;;27.60;48.50;;;;;;5066598;28;20576;-68
2021/07/21 13:21:50;;;;;;;6.07;5.50;;;27.60;48.50;;;;;;5064986;28;20237;-68
2021/07/21 13:24:39;;;;;;;6.57;5.90;;;27.60;48.60;;;;;;5105603;28;20641;-68
2021/07/21 13:27:07;;;;;;;6.50;5.90;;;27.60;48.70;;;;;;5095970;28;20622;-68
2021/07/21 13:29:42;;;;;;;6.07;5.47;;;27.60;48.80;;;;;;5101543;28;20216;-68
2021/07/21 13:32:21;;;;;;;6.03;5.53;;;27.60;48.80;;;;;;5093888;28;20227;-68
2021/07/21 13:35:11;;;;;;;5.97;5.37;;;27.70;48.90;;;;;;5096024;28;20295;-68
2021/07/21 13:37:42;;;;;;;6.30;5.70;;;27.70;49.00;;;;;;5102545;28;20200;-68